Coahoma, Texas
Current Conditions -  °F | °C
As of 4:55 PM on Sunday 21 Dec 2014 (Local Time) from KBPG Reporting Station
Clear Clear  
Wind Chill: 66°   Ceiling: Unl
Heat Index: 66°   Visibility: 10mi
Dew Point: 26°   Wind: 17mph
Humidity: 22%   Direction: 210°SSW
Pressure: 29.75"   Gusts: 25mph
Location:  32.3°N, 101.31°W
Report Text: KBPG 212255Z AUTO 21015G22KT 10SM CLR 19/M03 A2975 RMK AO2 T01901031
Loading
Personal Weather Stations






























Interactive Weather Map New forecast layout! Learn more

10-Day Weather Forecast

Advertisements
Track Severe Weather on mobile